KVAD/VAD METAR and TAF weather

Enter ICAO airport designator
Station Type Date Time Source
KVAD METAR 2020/07/15 03:56 UTC NOAA

KVAD 150356Z AUTO 00000KT 10SM CLR 27/24 A3004 RMK AO2 SLP172 T02650237 $


Station Type Date Time Source
KVAD Decoded METAR 2020/07/15 03:56 UTC NOAA

Moody Air Force Base, GA, United States (KVAD) 30-58N 083-12W 71M
Jul 14, 2020 - 11:56 PM EDT / 2020.07.15 0356 UTC
Wind: Calm:0
Visibility: 10 mile(s):0
Sky conditions: clear
Temperature: 79.7 F (26.5 C)
Dew Point: 74.7 F (23.7 C)
Relative Humidity: 84%
Pressure (altimeter): 30.04 in. Hg (1017 hPa)
ob: KVAD 150356Z AUTO 00000KT 10SM CLR 27/24 A3004 RMK AO2 SLP172 T02650237
cycle: 4

Station Type Date Time Source
KVAD TAF 2020/07/15 00:07 UTC NOAA

TAF KVAD 150000Z 1500/1606 21006KT 9999 SCT080 QNH2998INS
BECMG 1508/1510 21003KT 8000 BR BKN005 QNH3002INS
BECMG 1512/1514 21006KT 9999 NSW SCT015 QNH3006INS
BECMG 1515/1516 21009KT 9999 BKN030 QNH2999INS
TEMPO 1519/1523 18015G25KT 4800 TSRA BKN050CB TX35/1520Z TN23/1508Z

Example: see airport list